Airfield :
LOGIN :

Register | Disclaimer

   EN    FR    IT 

 










Legend :    VFR   Marginal VFR   IFR   Intensive IFR   Very Intensive IFR
Visi :
Ceiling :
>= 8 km
>= 3000ft
5 to 8 km
1000 to 3000 ft
1500m to 5 km
500 to 1000 ft
800 to 1500m
200 to 500 ft
< 800m
< 200 ft
Symbols :   Thunderstorms  Fog  Heavy snow  Heavy precipitations  Wind > 20 kt
SIGMETs :     Misc.  Thunderstorms  Icing  Turbulence  Mountain Waves  Volcanic Ashes






- Airport Elevation : 1234 ft
- IATA code : LUX


ELLX - Luxembourg Findel

CURRENT METAR :
  • 270820Z 18009KT 150V210 1200 R24/1400D SN SCT001 BKN002 00/M00 Q1002 TEMPO 3000 -SN BR

EXPIRED METARs :
  • 270750Z 18008KT 140V210 3000 -SN SCT003 BKN005 00/M00 Q1003 TEMPO 1500 -SN BR
  • 270720Z 18009KT 150V210 3000 -SN BKN005 01/M00 Q1004 TEMPO 1500 -SN BR
  • 270650Z 17009KT 9999 BKN005 01/M00 Q1004 BECMG 3000 -SN
  • 270620Z 19009KT 9999 BKN005 01/M00 Q1005 NOSIG
  • 270550Z 20008KT 170V230 9999 BKN005 01/00 Q1005 NOSIG

TAF TAF ELLX
Valid from the 27 at 06:00 until the 28 at 12:00 UTC


270500Z 2706/2812 25010KT 9999 BKN006
BECMG 2707/2709 3000 -SN
TEMPO 2710/2719 23015G35KT 1200 SN OVC002
BECMG 2716/2719 9999 NSW SCT012 SCT020
TEMPO 2719/2722 5000 -SHSN BKN012
TEMPO 2803/2808 3000 BR BKN005
ATIS : +352 4798 27300
Met : +352 4798 27010 / 27050



MET'MAP, your aeronautical weather chart ! - Copyright ORBIFLY December 2007 - Disclaimer

ORBIFLY MET'MAP TEAM :

Programming & Development : Alexandra Zaïnal
Concept & original design : Baudouin d'Aumeries
Assistance for programming : Marc-Olivier Méhu
Technical & hardware support : Manuel Goepfert

Contact : metmap@orbifly.com




SOURCES & CREDITS :

   NOAA